Time;durP1;ratioP1;P1;durP2;ratioP2;P2;SDS_P1;SDS_P2;PMS_P1;PMS_P2;Temp;Humidity;BMP_temperature;BMP_pressure;BME280_temperature;BME280_humidity;BME280_pressure;Samples;Min_cycle;Max_cycle;Signal;HPM_P1;HPM_P2
2022/03/09 00:01:41;;;;;;;51.58;26.88;;;;;;;;;;6191799;23;20009;-89
2022/03/09 00:04:07;;;;;;;52.75;24.73;;;;;;;;;;6192112;23;20134;-90
2022/03/09 00:06:33;;;;;;;47.22;24.05;;;;;;;;;;6191906;23;20009;-90
2022/03/09 00:08:59;;;;;;;46.75;22.52;;;;;;;;;;6165699;23;20242;-91
2022/03/09 00:11:25;;;;;;;38.53;21.55;;;;;;;;;;6191427;23;20012;-89
2022/03/09 00:13:51;;;;;;;41.67;21.05;;;;;;;;;;6191552;23;20092;-91
2022/03/09 00:16:17;;;;;;;34.05;18.30;;;;;;;;;;6191631;23;20360;-90
2022/03/09 00:18:43;;;;;;;35.53;19.38;;;;;;;;;;6191591;23;20384;-89
2022/03/09 00:21:09;;;;;;;43.70;21.50;;;;;;;;;;6191920;23;20256;-90
2022/03/09 00:23:35;;;;;;;39.75;20.80;;;;;;;;;;6191871;23;20008;-90
2022/03/09 00:26:01;;;;;;;35.88;19.85;;;;;;;;;;6191656;23;20368;-90
2022/03/09 00:28:30;;;;;;;40.63;20.63;;;;;;;;;;6191854;23;20021;-91
2022/03/09 00:30:57;;;;;;;40.00;21.02;;;;;;;;;;6191713;23;20009;-89
2022/03/09 00:33:23;;;;;;;42.42;20.65;;;;;;;;;;6191812;23;20383;-90
2022/03/09 00:35:49;;;;;;;47.28;21.55;;;;;;;;;;6191855;23;20001;-89
2022/03/09 00:38:15;;;;;;;49.05;23.45;;;;;;;;;;6165489;23;20004;-90
2022/03/09 00:40:41;;;;;;;49.65;24.60;;;;;;;;;;6165421;23;20028;-91
2022/03/09 00:43:07;;;;;;;52.35;24.88;;;;;;;;;;6191537;23;20025;-90
2022/03/09 00:46:10;;;;;;;45.80;23.95;;;;;;;;;;6165336;23;20084;-89
2022/03/09 00:48:36;;;;;;;49.90;25.23;;;;;;;;;;6191247;23;19997;-90
2022/03/09 00:51:02;;;;;;;56.55;26.83;;;;;;;;;;6191800;23;20009;-89
2022/03/09 00:53:28;;;;;;;49.63;24.42;;;;;;;;;;6191698;23;20071;-91
2022/03/09 00:55:54;;;;;;;52.85;24.45;;;;;;;;;;6165030;23;20028;-91
2022/03/09 01:01:05;;;;;;;45.58;22.27;;;;;;;;;;6191367;23;20068;-90
2022/03/09 01:03:31;;;;;;;45.90;22.33;;;;;;;;;;6191493;23;20009;-89
2022/03/09 01:05:57;;;;;;;44.92;22.88;;;;;;;;;;6191427;23;20005;-89
2022/03/09 01:08:23;;;;;;;45.60;22.33;;;;;;;;;;6191122;23;20005;-91
2022/03/09 01:10:49;;;;;;;41.22;21.48;;;;;;;;;;6191646;23;20237;-91
2022/03/09 01:13:16;;;;;;;37.40;20.65;;;;;;;;;;6165373;23;20024;-91
2022/03/09 01:15:42;;;;;;;37.28;19.83;;;;;;;;;;6191258;23;20021;-92
2022/03/09 01:18:08;;;;;;;37.85;20.20;;;;;;;;;;6164907;23;19997;-90
2022/03/09 01:20:34;;;;;;;39.95;20.60;;;;;;;;;;6190991;23;20032;-90
2022/03/09 01:23:00;;;;;;;41.15;20.60;;;;;;;;;;6190692;23;20356;-90
2022/03/09 01:25:26;;;;;;;35.35;18.33;;;;;;;;;;6164721;23;20008;-90
2022/03/09 01:27:52;;;;;;;37.03;20.77;;;;;;;;;;6165086;23;20001;-91
2022/03/09 01:30:18;;;;;;;43.25;20.42;;;;;;;;;;6190735;23;20009;-91
2022/03/09 01:32:44;;;;;;;41.40;20.95;;;;;;;;;;6191263;23;20260;-89
2022/03/09 01:35:10;;;;;;;46.15;22.23;;;;;;;;;;6190927;23;20006;-90
2022/03/09 01:37:37;;;;;;;37.28;22.30;;;;;;;;;;6191344;23;19997;-91
2022/03/09 01:40:03;;;;;;;41.75;22.33;;;;;;;;;;6190876;23;20005;-91
2022/03/09 01:42:30;;;;;;;43.42;21.80;;;;;;;;;;6191207;23;20001;-91
2022/03/09 01:47:59;;;;;;;38.85;20.13;;;;;;;;;;6190890;23;20023;-91
2022/03/09 01:50:25;;;;;;;37.03;19.63;;;;;;;;;;6164948;23;20032;-90
2022/03/09 01:52:51;;;;;;;37.05;19.33;;;;;;;;;;6191258;23;20260;-92
2022/03/09 01:55:17;;;;;;;36.05;19.10;;;;;;;;;;6190708;23;20009;-91
2022/03/09 01:57:44;;;;;;;46.50;23.65;;;;;;;;;;6190756;23;20293;-91
2022/03/09 02:03:13;;;;;;;48.42;22.73;;;;;;;;;;6190776;23;20046;-90
2022/03/09 02:05:39;;;;;;;49.65;21.23;;;;;;;;;;6164962;23;20009;-90
2022/03/09 02:10:51;;;;;;;46.72;20.20;;;;;;;;;;6190842;23;20077;-90
2022/03/09 02:13:17;;;;;;;42.78;21.65;;;;;;;;;;6164839;23;20301;-91
2022/03/09 02:18:47;;;;;;;34.65;17.92;;;;;;;;;;6190697;23;20020;-91
2022/03/09 02:21:15;;;;;;;37.78;19.98;;;;;;;;;;6191171;23;20028;-92
2022/03/09 02:23:41;;;;;;;40.88;20.00;;;;;;;;;;6191122;23;20072;-91
2022/03/09 02:26:07;;;;;;;40.25;19.02;;;;;;;;;;6164912;23;20051;-91
2022/03/09 02:28:54;;;;;;;40.33;19.13;;;;;;;;;;6164833;23;20047;-92
2022/03/09 02:31:20;;;;;;;36.17;18.98;;;;;;;;;;6190510;23;20001;-92
2022/03/09 02:33:46;;;;;;;34.67;17.55;;;;;;;;;;6191833;23;20252;-93
2022/03/09 02:36:12;;;;;;;38.92;17.65;;;;;;;;;;6192967;23;20001;-92
2022/03/09 02:38:38;;;;;;;33.50;17.55;;;;;;;;;;6192631;23;20021;-90
2022/03/09 02:41:04;;;;;;;31.60;17.08;;;;;;;;;;6192838;23;20052;-91
2022/03/09 02:43:30;;;;;;;35.53;17.88;;;;;;;;;;6192645;23;20013;-91
2022/03/09 02:45:56;;;;;;;33.33;16.83;;;;;;;;;;6192829;23;20005;-90
2022/03/09 02:48:22;;;;;;;33.47;17.70;;;;;;;;;;6192793;23;20032;-91
2022/03/09 02:50:48;;;;;;;32.40;17.33;;;;;;;;;;6166483;23;20264;-91
2022/03/09 02:53:14;;;;;;;30.98;16.90;;;;;;;;;;6165890;23;20382;-90
2022/03/09 02:55:40;;;;;;;34.83;17.67;;;;;;;;;;6192996;23;20256;-92
2022/03/09 02:58:06;;;;;;;41.50;19.20;;;;;;;;;;6166747;23;20005;-91
2022/03/09 03:00:51;;;;;;;37.15;19.00;;;;;;;;;;6166468;23;20001;-89
2022/03/09 03:03:17;;;;;;;44.28;20.27;;;;;;;;;;6166591;23;20005;-89
2022/03/09 03:05:43;;;;;;;42.92;21.30;;;;;;;;;;6192715;23;20001;-90
2022/03/09 03:08:09;;;;;;;47.28;25.73;;;;;;;;;;6192786;23;20004;-90
2022/03/09 03:10:36;;;;;;;50.83;27.77;;;;;;;;;;6192747;23;20008;-89
2022/03/09 03:13:02;;;;;;;41.58;21.55;;;;;;;;;;6192548;23;20006;-90
2022/03/09 03:15:28;;;;;;;40.20;20.80;;;;;;;;;;6192275;23;20005;-90
2022/03/09 03:17:54;;;;;;;37.70;19.67;;;;;;;;;;6192023;23;19998;-90
2022/03/09 03:20:20;;;;;;;39.20;21.83;;;;;;;;;;6192286;23;20027;-90
2022/03/09 03:22:46;;;;;;;36.83;20.23;;;;;;;;;;6166407;23;20005;-89
2022/03/09 03:25:12;;;;;;;32.15;17.02;;;;;;;;;;6192174;23;20001;-90
2022/03/09 03:27:38;;;;;;;34.10;16.58;;;;;;;;;;6192082;23;20356;-90
2022/03/09 03:33:17;;;;;;;31.52;16.83;;;;;;;;;;6192149;23;20419;-90
2022/03/09 03:35:44;;;;;;;32.38;17.10;;;;;;;;;;6192325;23;20072;-91
2022/03/09 03:38:10;;;;;;;34.72;18.15;;;;;;;;;;6191952;23;20047;-90
2022/03/09 03:40:36;;;;;;;32.28;16.63;;;;;;;;;;6192424;23;20010;-92
2022/03/09 03:43:02;;;;;;;32.45;17.13;;;;;;;;;;6192410;23;20009;-92
2022/03/09 03:45:28;;;;;;;34.05;17.02;;;;;;;;;;6191854;23;20013;-90
2022/03/09 03:47:54;;;;;;;25.60;14.63;;;;;;;;;;6165959;23;20311;-90
2022/03/09 03:50:20;;;;;;;26.25;13.90;;;;;;;;;;6192183;23;20020;-90
2022/03/09 03:52:46;;;;;;;27.75;14.18;;;;;;;;;;6192166;23;20001;-90
2022/03/09 03:55:13;;;;;;;29.92;14.18;;;;;;;;;;6191947;23;20009;-91
2022/03/09 03:57:39;;;;;;;27.95;14.18;;;;;;;;;;6191940;23;20049;-91
2022/03/09 04:00:05;;;;;;;29.25;14.32;;;;;;;;;;6191929;23;20021;-91
2022/03/09 04:02:31;;;;;;;30.75;15.13;;;;;;;;;;6191797;23;19997;-92
2022/03/09 04:04:57;;;;;;;24.58;14.15;;;;;;;;;;6192396;23;20013;-90
2022/03/09 04:07:23;;;;;;;27.70;14.32;;;;;;;;;;6192061;23;20072;-90
2022/03/09 04:09:49;;;;;;;31.15;14.57;;;;;;;;;;6191950;23;20020;-91
2022/03/09 04:12:15;;;;;;;27.15;14.18;;;;;;;;;;6191625;23;20363;-91
2022/03/09 04:14:42;;;;;;;33.97;15.48;;;;;;;;;;6191382;23;20005;-90
2022/03/09 04:17:08;;;;;;;32.85;15.32;;;;;;;;;;6191628;23;20020;-91
2022/03/09 04:19:34;;;;;;;27.40;14.73;;;;;;;;;;6191414;23;20016;-90
2022/03/09 04:22:00;;;;;;;40.85;21.40;;;;;;;;;;6191939;23;20001;-90
2022/03/09 04:24:26;;;;;;;53.53;29.52;;;;;;;;;;6192163;23;20007;-90
2022/03/09 04:26:52;;;;;;;49.75;27.00;;;;;;;;;;6192114;23;20288;-91
2022/03/09 04:35:25;;;;;;;19.52;11.20;;;;;;;;;;6191403;23;20315;-90
2022/03/09 04:37:51;;;;;;;44.50;24.23;;;;;;;;;;6191807;23;20005;-90
2022/03/09 04:40:17;;;;;;;40.38;22.63;;;;;;;;;;6191363;23;20040;-91
2022/03/09 04:42:43;;;;;;;30.15;17.48;;;;;;;;;;6165156;23;20001;-90
2022/03/09 04:45:10;;;;;;;39.72;20.67;;;;;;;;;;6191229;23;20012;-90
2022/03/09 04:47:36;;;;;;;39.03;19.52;;;;;;;;;;6191856;23;20005;-91
2022/03/09 04:50:02;;;;;;;28.73;16.45;;;;;;;;;;6191645;23;20039;-90
2022/03/09 04:52:28;;;;;;;40.80;22.83;;;;;;;;;;6164655;23;20009;-91
2022/03/09 04:54:54;;;;;;;30.33;16.77;;;;;;;;;;6165221;23;20001;-92
2022/03/09 04:57:20;;;;;;;23.38;14.32;;;;;;;;;;6191632;23;20001;-92
2022/03/09 04:59:46;;;;;;;22.15;12.90;;;;;;;;;;6191500;23;20000;-91
2022/03/09 05:02:13;;;;;;;21.75;11.60;;;;;;;;;;6191540;23;20005;-92
2022/03/09 05:04:39;;;;;;;21.92;11.85;;;;;;;;;;6191420;23;20048;-92
2022/03/09 05:07:05;;;;;;;27.13;13.15;;;;;;;;;;6191407;23;20001;-92
2022/03/09 05:09:31;;;;;;;28.38;15.70;;;;;;;;;;6191472;23;20033;-91
2022/03/09 05:11:57;;;;;;;30.38;17.13;;;;;;;;;;6190932;23;20005;-90
2022/03/09 05:17:27;;;;;;;32.08;18.05;;;;;;;;;;6191034;23;20012;-91
2022/03/09 05:19:53;;;;;;;32.30;17.80;;;;;;;;;;6164635;23;20077;-89
2022/03/09 05:22:19;;;;;;;33.63;18.75;;;;;;;;;;6191502;23;20368;-90
2022/03/09 05:24:45;;;;;;;30.08;17.35;;;;;;;;;;6164504;23;20013;-90
2022/03/09 05:27:11;;;;;;;33.53;16.13;;;;;;;;;;6165186;23;20047;-90
2022/03/09 05:32:41;;;;;;;27.85;15.95;;;;;;;;;;6191058;23;20374;-90
2022/03/09 05:35:08;;;;;;;33.38;17.60;;;;;;;;;;6190801;23;20005;-91
2022/03/09 05:37:43;;;;;;;33.15;18.33;;;;;;;;;;6164983;23;20008;-89
2022/03/09 05:40:09;;;;;;;35.95;17.83;;;;;;;;;;6190767;23;20344;-90
2022/03/09 05:42:37;;;;;;;33.55;17.73;;;;;;;;;;6139913;23;20081;-91
2022/03/09 05:51:11;;;;;;;41.00;23.30;;;;;;;;;;6191186;23;20378;-91
2022/03/09 05:53:39;;;;;;;34.15;19.55;;;;;;;;;;6164837;23;20420;-90
2022/03/09 05:56:05;;;;;;;35.53;19.65;;;;;;;;;;6164967;23;20005;-91
2022/03/09 05:58:31;;;;;;;32.70;17.23;;;;;;;;;;6191116;23;20048;-90
2022/03/09 06:00:57;;;;;;;28.92;16.23;;;;;;;;;;6190679;23;20402;-90
2022/03/09 06:03:23;;;;;;;30.85;17.02;;;;;;;;;;6190920;23;20360;-89
2022/03/09 06:05:49;;;;;;;25.83;14.18;;;;;;;;;;6191067;23;20001;-92
2022/03/09 06:08:15;;;;;;;27.83;15.10;;;;;;;;;;6165369;23;20001;-91
2022/03/09 06:10:41;;;;;;;29.40;14.77;;;;;;;;;;6192818;23;20005;-90
2022/03/09 06:13:07;;;;;;;27.80;15.15;;;;;;;;;;6166910;23;20084;-91
2022/03/09 06:15:33;;;;;;;26.70;14.55;;;;;;;;;;6192608;23;20021;-90
2022/03/09 06:18:01;;;;;;;26.10;13.88;;;;;;;;;;6192644;23;20379;-90
2022/03/09 06:20:29;;;;;;;30.40;15.48;;;;;;;;;;6192350;23;20009;-90
2022/03/09 06:22:55;;;;;;;24.27;12.73;;;;;;;;;;6192934;23;20008;-89
2022/03/09 06:25:21;;;;;;;24.70;13.75;;;;;;;;;;6192892;23;20005;-90
2022/03/09 06:27:48;;;;;;;28.98;13.75;;;;;;;;;;6193048;23;20009;-89
2022/03/09 06:30:15;;;;;;;27.20;12.95;;;;;;;;;;6192848;23;20015;-91
2022/03/09 06:32:42;;;;;;;24.15;12.70;;;;;;;;;;6193012;23;20008;-89
2022/03/09 06:35:09;;;;;;;24.25;13.40;;;;;;;;;;6166899;23;20011;-91
2022/03/09 06:37:35;;;;;;;23.98;14.15;;;;;;;;;;6192916;23;20001;-91
2022/03/09 06:40:02;;;;;;;25.27;13.27;;;;;;;;;;6192878;23;20001;-90
2022/03/09 06:42:29;;;;;;;27.02;13.57;;;;;;;;;;6192926;23;20024;-91
2022/03/09 06:44:55;;;;;;;24.08;13.70;;;;;;;;;;6192969;23;20031;-92
2022/03/09 06:47:21;;;;;;;23.50;13.07;;;;;;;;;;6192797;23;20016;-93
2022/03/09 06:49:48;;;;;;;24.27;13.45;;;;;;;;;;6192502;23;20009;-90
2022/03/09 06:52:14;;;;;;;25.30;13.48;;;;;;;;;;6192555;23;20063;-89
2022/03/09 06:54:40;;;;;;;28.77;15.13;;;;;;;;;;6192402;23;20356;-91
2022/03/09 06:57:07;;;;;;;26.48;13.30;;;;;;;;;;6192975;23;20017;-92
2022/03/09 06:59:33;;;;;;;25.17;14.80;;;;;;;;;;6166467;23;20009;-90
2022/03/09 07:01:59;;;;;;;24.15;13.90;;;;;;;;;;6166086;23;20005;-93
2022/03/09 07:04:25;;;;;;;23.98;14.27;;;;;;;;;;6166520;23;20008;-92
2022/03/09 07:06:51;;;;;;;26.85;14.50;;;;;;;;;;6165919;23;20371;-93
2022/03/09 07:09:18;;;;;;;25.08;13.48;;;;;;;;;;6166258;23;20056;-91
2022/03/09 07:11:44;;;;;;;22.63;12.98;;;;;;;;;;6192612;23;20352;-91
2022/03/09 07:14:11;;;;;;;23.13;12.68;;;;;;;;;;6192506;23;20012;-92
2022/03/09 07:16:37;;;;;;;27.02;13.07;;;;;;;;;;6192669;23;20009;-92
2022/03/09 07:19:03;;;;;;;26.33;13.73;;;;;;;;;;6191760;23;20013;-92
2022/03/09 07:21:29;;;;;;;26.25;13.20;;;;;;;;;;6165358;23;20012;-92
2022/03/09 07:23:56;;;;;;;20.25;12.32;;;;;;;;;;6141765;23;20379;-92
2022/03/09 07:26:22;;;;;;;23.40;12.80;;;;;;;;;;6166206;23;20055;-91
2022/03/09 07:28:48;;;;;;;28.35;12.18;;;;;;;;;;6192045;23;20009;-92
2022/03/09 07:31:14;;;;;;;20.92;11.90;;;;;;;;;;6192201;23;20261;-91
2022/03/09 07:33:40;;;;;;;28.17;13.93;;;;;;;;;;6192308;23;20017;-91
2022/03/09 07:36:07;;;;;;;23.02;13.45;;;;;;;;;;6192390;23;19997;-92
2022/03/09 07:38:33;;;;;;;21.13;12.73;;;;;;;;;;6191934;23;20028;-91
2022/03/09 07:40:59;;;;;;;24.33;13.45;;;;;;;;;;6192332;23;20072;-92
2022/03/09 07:43:25;;;;;;;22.48;12.25;;;;;;;;;;6192375;23;20005;-91
2022/03/09 07:45:51;;;;;;;22.92;12.88;;;;;;;;;;6165522;23;20095;-91
2022/03/09 07:48:17;;;;;;;23.65;13.27;;;;;;;;;;6191491;23;20005;-92
2022/03/09 07:50:43;;;;;;;27.70;14.90;;;;;;;;;;6165990;23;20121;-91
2022/03/09 07:53:09;;;;;;;28.38;15.45;;;;;;;;;;6191773;23;20372;-90
2022/03/09 07:55:35;;;;;;;25.70;14.45;;;;;;;;;;6165285;23;20028;-92
2022/03/09 07:58:02;;;;;;;31.88;15.85;;;;;;;;;;6165775;23;20001;-93
2022/03/09 08:00:29;;;;;;;30.77;15.65;;;;;;;;;;6191810;23;19997;-91
2022/03/09 08:02:55;;;;;;;33.67;15.25;;;;;;;;;;6192291;23;20233;-91
2022/03/09 08:05:21;;;;;;;26.73;15.32;;;;;;;;;;6190802;23;20005;-92
2022/03/09 08:07:47;;;;;;;29.55;15.07;;;;;;;;;;6165762;23;20005;-90
2022/03/09 08:10:13;;;;;;;30.55;14.82;;;;;;;;;;6192270;23;20241;-91
2022/03/09 08:12:40;;;;;;;25.80;14.85;;;;;;;;;;6191874;23;20012;-91
2022/03/09 08:15:25;;;;;;;24.85;14.00;;;;;;;;;;6165759;23;20021;-91
2022/03/09 08:17:51;;;;;;;27.27;14.35;;;;;;;;;;6191476;23;20055;-92
2022/03/09 08:20:17;;;;;;;27.33;15.15;;;;;;;;;;6165474;23;20056;-91
2022/03/09 08:22:43;;;;;;;27.63;15.02;;;;;;;;;;6165197;23;20001;-91
2022/03/09 08:25:09;;;;;;;43.17;23.00;;;;;;;;;;6165544;23;20005;-92
2022/03/09 08:27:35;;;;;;;24.00;14.23;;;;;;;;;;6191801;23;20262;-91
2022/03/09 08:30:02;;;;;;;20.00;12.07;;;;;;;;;;6191679;23;20005;-90
2022/03/09 08:32:28;;;;;;;22.33;12.50;;;;;;;;;;6191807;23;20005;-91
2022/03/09 08:34:54;;;;;;;22.40;12.00;;;;;;;;;;6191474;23;20024;-91
2022/03/09 08:37:20;;;;;;;22.70;12.80;;;;;;;;;;6191835;23;20005;-90
2022/03/09 08:39:48;;;;;;;88.85;40.22;;;;;;;;;;6191682;23;19997;-91
2022/03/09 08:42:14;;;;;;;47.95;21.73;;;;;;;;;;6191939;23;20005;-91
2022/03/09 08:44:41;;;;;;;78.65;37.60;;;;;;;;;;6191816;23;20016;-91
2022/03/09 08:47:07;;;;;;;70.68;30.38;;;;;;;;;;6166129;23;20017;-90
2022/03/09 08:49:33;;;;;;;22.70;13.63;;;;;;;;;;6191856;23;20024;-92
2022/03/09 08:51:59;;;;;;;32.97;18.50;;;;;;;;;;6165427;23;20016;-90
2022/03/09 08:54:26;;;;;;;34.40;18.35;;;;;;;;;;6191136;23;20001;-90
2022/03/09 08:56:52;;;;;;;48.72;27.10;;;;;;;;;;6191759;23;19997;-90
2022/03/09 08:59:18;;;;;;;122.53;56.58;;;;;;;;;;6191307;23;20009;-90
2022/03/09 09:01:44;;;;;;;31.98;17.45;;;;;;;;;;6191364;23;20023;-91
2022/03/09 09:04:10;;;;;;;30.10;17.25;;;;;;;;;;6190932;23;20001;-91
2022/03/09 09:06:36;;;;;;;25.88;15.18;;;;;;;;;;6191494;23;20032;-92
2022/03/09 09:09:02;;;;;;;21.48;13.73;;;;;;;;;;6164415;23;20016;-90
2022/03/09 09:11:28;;;;;;;45.42;27.02;;;;;;;;;;6191568;23;20076;-93
2022/03/09 09:13:54;;;;;;;24.00;16.08;;;;;;;;;;6191425;23;20005;-89
2022/03/09 09:16:21;;;;;;;47.42;25.13;;;;;;;;;;6193219;23;20001;-96
2022/03/09 09:18:47;;;;;;;52.30;24.77;;;;;;;;;;6184048;23;20018;-95
2022/03/09 09:21:14;;;;;;;61.20;24.73;;;;;;;;;;6161081;23;20380;-94
2022/03/09 09:23:41;;;;;;;45.22;20.83;;;;;;;;;;6161064;23;19998;-95
2022/03/09 09:26:07;;;;;;;41.25;21.92;;;;;;;;;;6161109;23;20365;-92
2022/03/09 09:28:33;;;;;;;24.50;13.05;;;;;;;;;;6135573;23;20002;-96
2022/03/09 09:30:59;;;;;;;31.30;17.30;;;;;;;;;;6134560;23;20391;-95
2022/03/09 09:33:25;;;;;;;24.13;13.93;;;;;;;;;;6161428;23;20005;-96
2022/03/09 09:35:51;;;;;;;19.10;13.70;;;;;;;;;;6161335;23;20005;-96
2022/03/09 09:38:18;;;;;;;22.90;13.55;;;;;;;;;;6161470;23;20006;-95
2022/03/09 09:40:45;;;;;;;38.67;18.23;;;;;;;;;;6134982;23;20013;-96
2022/03/09 09:43:13;;;;;;;20.40;13.18;;;;;;;;;;6161374;23;20005;-96
2022/03/09 09:45:39;;;;;;;24.90;12.27;;;;;;;;;;6161211;23;20032;-94
2022/03/09 09:48:07;;;;;;;32.13;18.08;;;;;;;;;;6135529;23;20013;-95
2022/03/09 09:50:34;;;;;;;24.60;14.27;;;;;;;;;;6161640;23;20033;-95
2022/03/09 09:53:03;;;;;;;36.38;17.50;;;;;;;;;;6161756;23;20010;-94
2022/03/09 09:55:29;;;;;;;26.23;14.30;;;;;;;;;;6136052;23;20005;-94
2022/03/09 09:57:56;;;;;;;52.40;21.95;;;;;;;;;;6135702;23;20001;-95
2022/03/09 10:00:22;;;;;;;104.53;38.67;;;;;;;;;;6136279;23;20088;-95
2022/03/09 10:02:48;;;;;;;62.00;27.10;;;;;;;;;;6161475;23;20009;-94
2022/03/09 10:05:15;;;;;;;32.42;16.58;;;;;;;;;;6161947;23;20006;-95
2022/03/09 10:08:00;;;;;;;29.48;16.73;;;;;;;;;;6161653;23;20009;-95
2022/03/09 10:10:26;;;;;;;53.25;23.70;;;;;;;;;;6162055;23;20005;-94
2022/03/09 10:12:52;;;;;;;36.60;19.33;;;;;;;;;;6161959;23;20005;-94
2022/03/09 10:15:19;;;;;;;25.90;14.40;;;;;;;;;;6135860;23;20009;-94
2022/03/09 10:17:45;;;;;;;27.55;15.75;;;;;;;;;;6162391;23;20004;-95
2022/03/09 10:20:13;;;;;;;24.90;14.13;;;;;;;;;;6162414;23;20013;-95
2022/03/09 10:22:41;;;;;;;20.20;13.65;;;;;;;;;;6160864;23;20013;-94
2022/03/09 10:25:10;;;;;;;34.85;22.25;;;;;;;;;;6161398;23;20073;-94
2022/03/09 10:27:39;;;;;;;33.42;23.58;;;;;;;;;;6161378;23;20072;-95
2022/03/09 10:30:13;;;;;;;36.15;27.85;;;;;;;;;;6161097;23;20002;-95
2022/03/09 10:32:50;;;;;;;25.50;19.40;;;;;;;;;;6161392;23;20002;-95
2022/03/09 10:35:17;;;;;;;19.42;13.70;;;;;;;;;;6161213;23;20357;-95
2022/03/09 10:37:44;;;;;;;15.23;10.13;;;;;;;;;;6161400;23;20080;-94
2022/03/09 10:40:18;;;;;;;19.27;11.48;;;;;;;;;;6161396;23;20004;-95
2022/03/09 10:42:44;;;;;;;20.08;12.80;;;;;;;;;;6161160;23;20365;-96
2022/03/09 10:45:11;;;;;;;16.58;9.68;;;;;;;;;;6160825;23;19998;-96
2022/03/09 10:47:39;;;;;;;19.40;10.73;;;;;;;;;;6161367;23;20033;-96
2022/03/09 10:50:15;;;;;;;15.52;10.27;;;;;;;;;;6135222;23;20085;-94
2022/03/09 10:52:51;;;;;;;17.80;10.85;;;;;;;;;;6161262;23;20001;-95
2022/03/09 10:55:20;;;;;;;20.70;11.43;;;;;;;;;;6163295;23;20009;-95
2022/03/09 10:57:46;;;;;;;17.40;11.00;;;;;;;;;;6163521;23;20001;-95
2022/03/09 11:00:31;;;;;;;17.88;11.57;;;;;;;;;;6137879;23;20001;-95
2022/03/09 11:03:04;;;;;;;17.63;11.52;;;;;;;;;;6193305;23;20272;-95
2022/03/09 11:05:30;;;;;;;17.00;11.00;;;;;;;;;;6193627;23;20054;-95
2022/03/09 11:07:57;;;;;;;19.48;10.95;;;;;;;;;;6194191;23;20001;-94
2022/03/09 11:10:26;;;;;;;17.60;10.65;;;;;;;;;;6167247;23;20009;-96
2022/03/09 11:12:52;;;;;;;18.35;10.05;;;;;;;;;;6167181;23;20309;-94
2022/03/09 11:15:20;;;;;;;16.10;11.43;;;;;;;;;;6166247;23;20005;-95
2022/03/09 11:17:50;;;;;;;17.80;11.90;;;;;;;;;;6193497;23;20372;-93
2022/03/09 11:20:16;;;;;;;18.30;10.85;;;;;;;;;;6192809;23;20394;-94
2022/03/09 11:22:42;;;;;;;20.13;10.80;;;;;;;;;;6166302;23;20033;-95
2022/03/09 11:25:09;;;;;;;21.80;11.85;;;;;;;;;;6191961;23;20001;-95
2022/03/09 11:27:42;;;;;;;17.60;10.60;;;;;;;;;;6166627;23;20008;-94
2022/03/09 11:30:24;;;;;;;21.73;12.32;;;;;;;;;;6192826;23;20012;-95
2022/03/09 11:32:50;;;;;;;15.15;10.05;;;;;;;;;;6165816;23;20043;-96
2022/03/09 11:35:35;;;;;;;16.30;10.57;;;;;;;;;;6192117;23;20014;-93
2022/03/09 11:38:02;;;;;;;17.20;10.80;;;;;;;;;;6192182;23;20025;-95
2022/03/09 11:40:28;;;;;;;17.63;11.60;;;;;;;;;;6192437;23;20001;-95
2022/03/09 11:42:54;;;;;;;20.33;11.77;;;;;;;;;;6191989;23;20001;-95
2022/03/09 11:45:20;;;;;;;16.65;10.38;;;;;;;;;;6191829;23;20005;-94
2022/03/09 11:47:56;;;;;;;17.48;11.20;;;;;;;;;;6193603;23;20025;-94
2022/03/09 11:50:23;;;;;;;23.27;12.88;;;;;;;;;;6193108;23;20379;-95
2022/03/09 11:53:01;;;;;;;19.50;11.75;;;;;;;;;;6192605;23;20046;-94
2022/03/09 11:55:27;;;;;;;18.92;12.27;;;;;;;;;;6192432;23;20364;-94
2022/03/09 11:57:58;;;;;;;23.25;12.85;;;;;;;;;;6166602;23;20009;-93
2022/03/09 12:00:24;;;;;;;20.67;11.57;;;;;;;;;;6166669;23;20084;-94
2022/03/09 12:02:51;;;;;;;19.23;11.95;;;;;;;;;;6193101;23;20001;-93
2022/03/09 12:05:26;;;;;;;22.83;13.00;;;;;;;;;;6192619;23;20268;-94
2022/03/09 12:07:55;;;;;;;23.17;12.98;;;;;;;;;;6192551;23;20009;-94
2022/03/09 12:10:22;;;;;;;21.10;13.23;;;;;;;;;;6192966;23;20005;-94
2022/03/09 12:13:07;;;;;;;21.75;11.43;;;;;;;;;;6192569;23;20032;-96
2022/03/09 12:15:53;;;;;;;24.77;12.82;;;;;;;;;;6192562;23;20426;-94
2022/03/09 12:18:35;;;;;;;24.05;12.60;;;;;;;;;;6191936;23;20024;-95
2022/03/09 12:21:01;;;;;;;21.02;12.65;;;;;;;;;;6192401;23;19997;-95
2022/03/09 12:23:27;;;;;;;19.58;12.65;;;;;;;;;;6165881;23;20031;-94
2022/03/09 12:25:54;;;;;;;22.45;13.70;;;;;;;;;;6166605;23;20040;-94
2022/03/09 12:31:07;;;;;;;27.95;13.32;;;;;;;;;;6192812;23;20013;-95
2022/03/09 12:33:33;;;;;;;23.27;13.23;;;;;;;;;;6192508;23;20001;-94
2022/03/09 12:36:13;;;;;;;20.10;12.85;;;;;;;;;;6192268;23;20008;-95
2022/03/09 12:38:40;;;;;;;18.60;11.95;;;;;;;;;;6191767;23;20001;-94
2022/03/09 12:41:07;;;;;;;22.13;12.63;;;;;;;;;;6191805;23;20008;-94
2022/03/09 12:43:49;;;;;;;23.02;11.98;;;;;;;;;;6191453;23;20001;-93
2022/03/09 12:46:15;;;;;;;23.50;12.27;;;;;;;;;;6191253;23;20009;-93
2022/03/09 12:48:42;;;;;;;21.80;12.40;;;;;;;;;;6191826;23;20009;-94
2022/03/09 12:51:08;;;;;;;21.38;12.00;;;;;;;;;;6165519;23;20001;-92
2022/03/09 12:53:35;;;;;;;20.77;11.80;;;;;;;;;;6191676;23;20273;-94
2022/03/09 12:56:17;;;;;;;18.63;11.88;;;;;;;;;;6165372;23;20418;-93
2022/03/09 12:58:43;;;;;;;;;;;;;;;;;;6165936;23;20002;-92
2022/03/09 13:01:10;;;;;;;18.77;11.98;;;;;;;;;;6191282;23;19900;-92
2022/03/09 13:03:39;;;;;;;22.70;12.57;;;;;;;;;;6191644;23;20075;-93
2022/03/09 13:06:06;;;;;;;20.42;11.65;;;;;;;;;;6191610;23;20005;-94
2022/03/09 13:08:35;;;;;;;21.77;13.20;;;;;;;;;;6191649;23;20001;-94
2022/03/09 13:11:04;;;;;;;20.40;12.18;;;;;;;;;;6165377;23;20081;-95
2022/03/09 13:13:31;;;;;;;23.33;13.20;;;;;;;;;;6191460;23;20001;-94
2022/03/09 13:16:02;;;;;;;20.52;12.77;;;;;;;;;;6191456;23;20028;-94
2022/03/09 13:18:35;;;;;;;23.38;12.18;;;;;;;;;;6190655;23;20017;-92
2022/03/09 13:21:02;;;;;;;22.38;12.95;;;;;;;;;;6165258;23;20007;-94
2022/03/09 13:23:37;;;;;;;22.95;13.80;;;;;;;;;;6191575;23;20001;-92
2022/03/09 13:26:24;;;;;;;21.38;12.70;;;;;;;;;;6165107;23;20005;-95
2022/03/09 13:28:54;;;;;;;20.55;12.05;;;;;;;;;;6191427;23;20005;-94
2022/03/09 13:31:20;;;;;;;22.15;11.85;;;;;;;;;;6191786;23;20001;-94
2022/03/09 13:33:47;;;;;;;21.75;12.43;;;;;;;;;;6164660;23;20391;-94
2022/03/09 13:36:14;;;;;;;26.58;13.00;;;;;;;;;;6191331;23;20325;-94
2022/03/09 13:38:42;;;;;;;21.50;13.30;;;;;;;;;;6191299;23;20019;-95
2022/03/09 13:41:09;;;;;;;24.50;14.45;;;;;;;;;;6191346;23;20076;-94
2022/03/09 13:43:37;;;;;;;20.02;13.25;;;;;;;;;;6164310;23;20387;-96
2022/03/09 13:46:15;;;;;;;22.30;12.85;;;;;;;;;;6191200;23;20005;-94
2022/03/09 13:48:41;;;;;;;20.20;12.65;;;;;;;;;;6190476;23;20010;-94
2022/03/09 13:51:07;;;;;;;23.60;13.52;;;;;;;;;;6166203;23;20368;-93
2022/03/09 13:53:34;;;;;;;26.77;13.85;;;;;;;;;;6165902;23;20033;-95
2022/03/09 13:56:01;;;;;;;24.30;13.73;;;;;;;;;;6191257;23;20044;-96
2022/03/09 13:58:28;;;;;;;24.17;14.27;;;;;;;;;;6191185;23;19997;-94
2022/03/09 14:01:04;;;;;;;24.23;14.10;;;;;;;;;;6191691;23;20012;-93
2022/03/09 14:03:38;;;;;;;20.65;12.90;;;;;;;;;;6165525;23;20052;-94
2022/03/09 14:06:11;;;;;;;23.02;12.77;;;;;;;;;;6191534;23;20001;-93
2022/03/09 14:08:37;;;;;;;22.75;12.30;;;;;;;;;;6191455;23;20034;-94
2022/03/09 14:11:08;;;;;;;22.58;12.82;;;;;;;;;;6191145;23;20330;-93
2022/03/09 14:13:35;;;;;;;20.48;12.43;;;;;;;;;;6165663;23;20091;-93
2022/03/09 14:16:01;;;;;;;28.85;13.63;;;;;;;;;;6191273;23;20072;-93
2022/03/09 14:18:27;;;;;;;29.67;14.85;;;;;;;;;;6190686;23;20046;-92
2022/03/09 14:20:53;;;;;;;27.27;15.60;;;;;;;;;;6191152;23;20001;-93
2022/03/09 14:23:19;;;;;;;44.15;23.65;;;;;;;;;;6164956;23;20005;-92
2022/03/09 14:25:46;;;;;;;41.17;20.30;;;;;;;;;;6190395;23;19994;-93
2022/03/09 14:28:12;;;;;;;33.40;17.15;;;;;;;;;;6190728;23;20004;-94
2022/03/09 14:30:38;;;;;;;40.38;22.98;;;;;;;;;;6193222;23;20001;-92
2022/03/09 14:33:04;;;;;;;42.35;23.13;;;;;;;;;;6192924;23;20005;-92
2022/03/09 14:35:30;;;;;;;39.90;20.95;;;;;;;;;;6193142;23;20251;-91
2022/03/09 14:37:56;;;;;;;35.45;20.13;;;;;;;;;;6193019;23;20005;-91
2022/03/09 14:40:24;;;;;;;32.60;18.38;;;;;;;;;;6192463;23;20435;-92
2022/03/09 14:42:52;;;;;;;33.30;20.40;;;;;;;;;;6193143;23;20072;-92
2022/03/09 14:45:19;;;;;;;35.80;20.67;;;;;;;;;;6192642;23;20001;-92
2022/03/09 14:47:45;;;;;;;34.47;21.48;;;;;;;;;;6192440;23;20084;-91
2022/03/09 14:50:12;;;;;;;37.20;21.08;;;;;;;;;;6192957;23;20001;-91
2022/03/09 14:52:38;;;;;;;37.65;20.00;;;;;;;;;;6166724;23;20015;-92
2022/03/09 14:55:04;;;;;;;30.48;19.02;;;;;;;;;;6166289;23;20001;-91
2022/03/09 14:57:31;;;;;;;34.25;20.52;;;;;;;;;;6192501;23;20001;-91